Time;durP1;ratioP1;P1;durP2;ratioP2;P2;SDS_P1;SDS_P2;PMS_P1;PMS_P2;Temp;Humidity;BMP_temperature;BMP_pressure;BME280_temperature;BME280_humidity;BME280_pressure;Samples;Min_cycle;Max_cycle;Signal;HPM_P1;HPM_P2
2022/09/21 19:43:05;;;;;;;10.55;5.55;;;;;;;13.25;63.04;101339.09;5090419;27;20374;-68
2022/09/21 19:45:44;;;;;;;9.07;4.72;;;;;;;13.35;62.57;101339.78;5048227;28;20037;-68
2022/09/21 19:48:13;;;;;;;8.25;4.32;;;;;;;13.22;62.89;101347.91;5066613;28;20029;-69
2022/09/21 19:50:53;;;;;;;11.23;5.35;;;;;;;13.12;63.38;101348.06;5070655;28;20393;-68
2022/09/21 20:01:42;;;;;;;21.85;8.00;;;;;;;13.03;63.18;101336.78;5050753;28;20045;-68
2022/09/21 20:04:13;;;;;;;19.02;7.13;;;;;;;13.05;63.10;101345.56;5059716;28;20101;-67
2022/09/21 20:06:46;;;;;;;22.58;7.43;;;;;;;13.09;62.73;101343.75;5069793;28;20094;-66
2022/09/21 20:09:15;;;;;;;11.50;4.75;;;;;;;13.05;62.74;101340.28;5069507;28;20048;-68
2022/09/21 20:11:40;;;;;;;9.25;4.38;;;;;;;13.04;62.86;101349.06;5068925;28;20396;-67
2022/09/21 20:14:17;;;;;;;6.32;3.90;;;;;;;12.98;62.91;101350.94;5074015;28;20028;-66
2022/09/21 20:17:12;;;;;;;9.50;4.47;;;;;;;12.93;62.94;101335.19;5077693;28;20032;-68
2022/09/21 20:19:46;;;;;;;13.55;5.32;;;;;;;13.03;62.54;101339.41;5073436;28;20131;-68
2022/09/21 20:22:16;;;;;;;12.50;5.70;;;;;;;12.98;62.82;101341.25;5069917;28;20060;-67
2022/09/21 20:24:48;;;;;;;14.27;5.60;;;;;;;12.96;62.84;101335.13;5069912;28;20028;-69
2022/09/21 20:27:31;;;;;;;11.13;4.63;;;;;;;12.94;62.75;101336.06;5069834;28;20041;-68
2022/09/21 20:29:57;;;;;;;12.40;4.88;;;;;;;12.85;63.05;101339.72;5069133;28;20036;-69
2022/09/21 20:32:22;;;;;;;14.10;5.40;;;;;;;12.87;63.07;101331.78;5069897;28;20037;-69
2022/09/21 20:34:49;;;;;;;9.52;3.88;;;;;;;12.78;63.39;101332.81;5069705;28;20090;-68
2022/09/21 20:37:16;;;;;;;9.07;3.92;;;;;;;12.83;63.00;101331.81;5069372;28;20073;-68
2022/09/21 20:39:41;;;;;;;14.18;5.10;;;;;;;12.82;62.91;101332.72;5069401;28;20499;-67
2022/09/21 20:42:16;;;;;;;27.77;9.65;;;;;;;12.66;63.27;101330.34;5069024;28;20052;-67
2022/09/21 20:44:41;;;;;;;27.75;10.20;;;;;;;12.71;63.24;101331.16;5068952;28;20108;-68
2022/09/21 20:47:07;;;;;;;28.50;10.13;;;;;;;12.78;62.88;101331.03;5068954;28;20116;-68
2022/09/21 20:49:33;;;;;;;22.40;8.35;;;;;;;12.78;62.93;101328.41;5068516;28;20064;-67
2022/09/21 20:52:00;;;;;;;16.58;6.00;;;;;;;12.72;62.99;101332.88;5067243;28;20064;-67
2022/09/21 20:54:25;;;;;;;13.25;5.00;;;;;;;12.67;63.12;101329.44;5055293;28;20040;-67
2022/09/21 20:56:50;;;;;;;10.80;4.43;;;;;;;12.69;63.11;101340.88;5055155;28;20036;-68
2022/09/21 20:59:16;;;;;;;9.40;4.00;;;;;;;12.69;63.00;101327.69;5055628;28;20029;-69
2022/09/21 21:01:41;;;;;;;9.82;4.07;;;;;;;12.60;63.30;101338.34;5055010;28;20041;-68
2022/09/21 21:04:07;;;;;;;11.18;4.75;;;;;;;12.57;63.39;101337.50;5054995;28;20067;-67
2022/09/21 21:06:32;;;;;;;13.63;5.80;;;;;;;12.61;63.32;101335.69;5055200;28;20068;-68
2022/09/21 21:08:58;;;;;;;10.35;5.80;;;;;;;12.56;63.37;101333.09;5055276;28;20074;-68
2022/09/21 21:11:26;;;;;;;11.82;5.15;;;;;;;12.54;63.56;101340.19;5055287;28;20393;-68
2022/09/21 21:13:52;;;;;;;12.38;5.10;;;;;;;12.54;63.47;101332.28;5054894;28;20076;-69
2022/09/21 21:16:18;;;;;;;15.27;7.28;;;;;;;12.53;63.51;101332.31;5055100;28;20388;-67
2022/09/21 21:18:43;;;;;;;15.57;6.97;;;;;;;12.51;63.44;101337.59;5051124;28;21856;-68
2022/09/21 21:21:08;;;;;;;15.95;7.75;;;;;;;12.46;63.77;101339.41;5056394;28;20044;-68
2022/09/21 21:26:18;;;;;;;12.52;5.22;;;;;;;12.37;63.91;101338.66;5054537;28;20044;-68
2022/09/21 21:28:43;;;;;;;8.73;4.10;;;;;;;12.46;63.57;101349.09;5054302;28;20037;-66
2022/09/21 21:31:09;;;;;;;12.30;4.43;;;;;;;12.22;64.03;101352.94;5052607;28;20068;-67
2022/09/21 21:33:35;;;;;;;6.68;3.45;;;;;;;12.25;64.04;101345.00;5054389;28;20143;-68
2022/09/21 21:36:07;;;;;;;12.23;5.22;;;;;;;12.33;63.91;101345.78;5057437;28;20116;-68
2022/09/21 21:38:33;;;;;;;13.38;5.20;;;;;;;12.35;63.85;101341.34;5050909;28;20174;-67
2022/09/21 21:40:59;;;;;;;7.07;3.58;;;;;;;12.49;63.39;101338.53;5049823;28;20052;-66
2022/09/21 21:43:24;;;;;;;6.78;2.65;;;;;;;12.54;63.29;101344.59;5047115;28;20037;-66
2022/09/21 21:45:51;;;;;;;8.25;2.22;;;;;;;12.52;63.25;101339.31;5060901;28;20029;-68
2022/09/21 21:48:16;;;;;;;3.70;1.83;;;;;;;12.74;62.62;101339.03;5052965;28;20029;-68
2022/09/21 21:50:42;;;;;;;5.18;2.33;;;;;;;12.87;62.30;101337.06;5054333;28;20044;-68
2022/09/21 21:53:07;;;;;;;5.85;2.72;;;;;;;13.12;61.61;101342.78;5054491;28;20033;-67
2022/09/21 21:55:32;;;;;;;6.07;2.60;;;;;;;13.18;61.29;101345.34;5054464;28;20524;-67
2022/09/21 21:57:58;;;;;;;7.68;3.00;;;;;;;13.12;61.39;101345.44;5054772;28;20037;-67
2022/09/21 22:00:23;;;;;;;6.30;2.78;;;;;;;13.14;61.38;101347.16;5053472;28;20037;-68
2022/09/21 22:02:49;;;;;;;7.70;3.10;;;;;;;13.25;61.02;101357.56;5054385;28;20037;-67
2022/09/21 22:05:14;;;;;;;6.75;3.00;;;;;;;13.64;60.27;101353.31;5051426;28;20524;-67
2022/09/21 22:07:40;;;;;;;5.13;2.55;;;;;;;13.58;60.29;101349.94;5053735;28;20040;-68
2022/09/21 22:10:07;;;;;;;5.40;2.33;;;;;;;13.59;60.46;101352.53;5053632;28;20037;-67
2022/09/21 22:12:33;;;;;;;5.25;1.90;;;;;;;13.82;60.05;101344.19;5053778;28;20040;-69
2022/09/21 22:14:58;;;;;;;5.22;2.17;;;;;;;13.93;59.88;101342.22;5054133;28;20400;-69
2022/09/21 22:17:24;;;;;;;5.07;2.55;;;;;;;13.59;60.58;101341.13;5054065;28;20033;-67
2022/09/21 22:19:50;;;;;;;4.88;2.17;;;;;;;13.50;60.76;101339.53;5053727;28;20512;-68
2022/09/21 22:22:15;;;;;;;4.43;2.33;;;;;;;13.46;61.00;101341.34;5052396;28;20041;-68
2022/09/21 22:24:40;;;;;;;3.97;1.52;;;;;;;13.54;60.88;101333.28;5053575;28;20064;-68
2022/09/21 22:27:06;;;;;;;4.55;1.80;;;;;;;13.36;60.92;101337.13;5054166;28;20099;-68
2022/09/21 22:29:31;;;;;;;3.60;1.60;;;;;;;13.39;61.07;101328.28;5053164;28;20041;-68
2022/09/21 22:31:56;;;;;;;3.13;1.85;;;;;;;13.42;61.04;101329.09;5053728;28;20037;-68
2022/09/21 22:34:22;;;;;;;4.20;1.63;;;;;;;13.35;61.11;101329.25;5053178;28;20083;-68
2022/09/21 22:36:49;;;;;;;3.75;1.52;;;;;;;13.27;61.39;101326.72;5054248;28;20416;-67
2022/09/21 22:39:14;;;;;;;3.10;1.45;;;;;;;13.13;61.86;101323.44;5052542;28;20045;-67
2022/09/21 22:41:41;;;;;;;3.03;1.33;;;;;;;13.01;62.23;101321.88;5052063;28;20083;-67
2022/09/21 22:44:07;;;;;;;5.05;1.52;;;;;;;12.90;62.55;101321.19;5048089;28;20559;-66
2022/09/21 22:46:33;;;;;;;3.33;1.55;;;;;;;12.78;63.04;101316.97;5053330;28;20044;-67
2022/09/21 22:48:59;;;;;;;4.38;1.70;;;;;;;12.81;63.00;101314.31;5049445;28;20485;-67
2022/09/21 22:51:25;;;;;;;6.13;1.95;;;;;;;12.67;63.70;101317.13;5049683;28;20120;-67
2022/09/21 22:53:51;;;;;;;3.40;1.75;;;;;;;12.62;63.93;101313.72;5051714;28;20067;-67
2022/09/21 22:56:19;;;;;;;6.35;1.90;;;;;;;12.53;64.68;101321.75;5048221;28;20477;-66
2022/09/21 22:58:47;;;;;;;4.28;1.80;;;;;;;12.53;64.75;101317.34;5048586;28;20098;-67
2022/09/21 23:01:19;;;;;;;3.60;1.60;;;;;;;12.51;64.79;101316.50;5047753;28;20526;-67
2022/09/21 23:03:47;;;;;;;4.18;1.67;;;;;;;12.48;65.08;101313.91;5052285;28;20043;-66
2022/09/21 23:06:16;;;;;;;3.38;1.60;;;;;;;12.50;64.93;101314.75;5051717;28;20025;-67
2022/09/21 23:08:42;;;;;;;3.35;1.60;;;;;;;12.64;64.58;101316.31;5050298;28;20467;-66
2022/09/21 23:11:15;;;;;;;5.47;2.30;;;;;;;12.65;64.57;101315.44;5050625;28;20036;-67
2022/09/21 23:13:41;;;;;;;;;;;;;;;12.60;65.71;101311.97;5053378;28;20055;-66
2022/09/21 23:16:09;;;;;;;5.32;2.17;;;;;;;12.48;64.93;101320.94;5050787;28;20011;-67
2022/09/21 23:18:36;;;;;;;4.70;2.10;;;;;;;12.54;65.20;101320.88;5050184;28;20036;-66
2022/09/21 23:21:06;;;;;;;3.72;1.65;;;;;;;12.49;65.55;101317.44;5051994;28;20112;-67
2022/09/21 23:23:32;;;;;;;3.20;1.55;;;;;;;12.37;66.26;101307.03;5051364;28;20079;-66
2022/09/21 23:26:08;;;;;;;3.88;1.63;;;;;;;12.40;66.34;101312.28;5052877;28;20064;-68
2022/09/21 23:28:35;;;;;;;2.75;1.52;;;;;;;12.45;66.18;101316.59;5045499;28;20040;-68
2022/09/21 23:31:02;;;;;;;3.80;1.52;;;;;;;12.38;67.01;101316.72;5051390;28;20068;-69
2022/09/21 23:33:41;;;;;;;2.90;1.55;;;;;;;12.44;67.29;101320.09;5049252;28;20073;-68
2022/09/21 23:36:08;;;;;;;5.78;1.38;;;;;;;12.45;66.55;101323.66;5044116;28;20041;-67
2022/09/21 23:38:34;;;;;;;2.17;1.30;;;;;;;12.53;66.70;101325.28;5047493;28;20483;-69
2022/09/21 23:41:06;;;;;;;2.33;1.20;;;;;;;12.63;66.87;101319.84;5052312;28;20045;-68
2022/09/21 23:43:32;;;;;;;2.17;1.10;;;;;;;12.71;66.46;101321.47;5046757;28;20061;-68
2022/09/21 23:45:58;;;;;;;2.47;1.27;;;;;;;12.76;66.36;101316.13;5048228;28;20507;-68
2022/09/21 23:48:24;;;;;;;3.10;1.02;;;;;;;12.72;66.47;101319.69;5048001;28;20037;-67
2022/09/21 23:50:49;;;;;;;2.50;1.13;;;;;;;12.68;66.43;101318.00;5045433;28;20091;-68
2022/09/21 23:53:15;;;;;;;2.78;1.13;;;;;;;12.87;65.79;101321.22;5051419;28;20032;-67
2022/09/21 23:55:40;;;;;;;3.45;0.90;;;;;;;12.82;66.09;101321.31;5045243;28;20464;-67
2022/09/21 23:58:06;;;;;;;1.95;0.90;;;;;;;12.83;66.00;101316.00;5046710;28;20041;-66
